sensor_id;sensor_type;location;lat;lon;timestamp;P1;durP1;ratioP1;P2;durP2;ratioP2
6667;SDS011;3370;47.712;9.082;2022-08-21T00:02:24;8.10;;;2.50;;
6667;SDS011;3370;47.712;9.082;2022-08-21T00:04:52;5.07;;;2.30;;
6667;SDS011;3370;47.712;9.082;2022-08-21T00:07:19;9.43;;;2.93;;
6667;SDS011;3370;47.712;9.082;2022-08-21T00:09:46;7.10;;;2.93;;
6667;SDS011;3370;47.712;9.082;2022-08-21T00:12:13;3.27;;;2.97;;
6667;SDS011;3370;47.712;9.082;2022-08-21T00:14:39;4.33;;;2.30;;
6667;SDS011;3370;47.712;9.082;2022-08-21T00:17:05;3.83;;;2.47;;
6667;SDS011;3370;47.712;9.082;2022-08-21T00:19:32;23.10;;;2.70;;
6667;SDS011;3370;47.712;9.082;2022-08-21T00:21:58;3.87;;;2.87;;
6667;SDS011;3370;47.712;9.082;2022-08-21T00:24:25;9.67;;;3.10;;
6667;SDS011;3370;47.712;9.082;2022-08-21T00:26:51;3.47;;;3.17;;
6667;SDS011;3370;47.712;9.082;2022-08-21T00:29:17;4.43;;;4.03;;
6667;SDS011;3370;47.712;9.082;2022-08-21T00:31:43;6.57;;;5.10;;
6667;SDS011;3370;47.712;9.082;2022-08-21T00:34:10;11.00;;;4.40;;
6667;SDS011;3370;47.712;9.082;2022-08-21T00:36:38;5.57;;;3.87;;
6667;SDS011;3370;47.712;9.082;2022-08-21T00:39:05;7.93;;;4.67;;
6667;SDS011;3370;47.712;9.082;2022-08-21T00:41:34;5.20;;;4.70;;
6667;SDS011;3370;47.712;9.082;2022-08-21T00:44:02;6.63;;;4.67;;
6667;SDS011;3370;47.712;9.082;2022-08-21T00:46:34;5.47;;;3.83;;
6667;SDS011;3370;47.712;9.082;2022-08-21T00:49:02;5.83;;;3.90;;
6667;SDS011;3370;47.712;9.082;2022-08-21T00:51:33;4.67;;;4.27;;
6667;SDS011;3370;47.712;9.082;2022-08-21T00:54:02;5.00;;;4.50;;
6667;SDS011;3370;47.712;9.082;2022-08-21T00:56:30;5.10;;;4.43;;
6667;SDS011;3370;47.712;9.082;2022-08-21T00:58:57;5.73;;;4.77;;
6667;SDS011;3370;47.712;9.082;2022-08-21T01:01:25;5.30;;;4.47;;
6667;SDS011;3370;47.712;9.082;2022-08-21T01:03:52;8.73;;;4.30;;
6667;SDS011;3370;47.712;9.082;2022-08-21T01:06:18;5.37;;;4.50;;
6667;SDS011;3370;47.712;9.082;2022-08-21T01:08:44;5.33;;;4.80;;
6667;SDS011;3370;47.712;9.082;2022-08-21T01:11:11;10.57;;;5.10;;
6667;SDS011;3370;47.712;9.082;2022-08-21T01:13:39;5.70;;;5.30;;
6667;SDS011;3370;47.712;9.082;2022-08-21T01:16:11;7.83;;;5.10;;
6667;SDS011;3370;47.712;9.082;2022-08-21T01:18:40;7.80;;;5.50;;
6667;SDS011;3370;47.712;9.082;2022-08-21T01:21:11;6.30;;;5.80;;
6667;SDS011;3370;47.712;9.082;2022-08-21T01:23:44;7.27;;;5.67;;
6667;SDS011;3370;47.712;9.082;2022-08-21T01:26:14;7.10;;;6.40;;
6667;SDS011;3370;47.712;9.082;2022-08-21T01:28:47;7.30;;;6.60;;
6667;SDS011;3370;47.712;9.082;2022-08-21T01:31:35;7.43;;;6.73;;
6667;SDS011;3370;47.712;9.082;2022-08-21T01:34:02;7.53;;;6.80;;
6667;SDS011;3370;47.712;9.082;2022-08-21T01:36:28;7.93;;;7.23;;
6667;SDS011;3370;47.712;9.082;2022-08-21T01:38:55;8.07;;;7.27;;
6667;SDS011;3370;47.712;9.082;2022-08-21T01:41:21;8.63;;;7.83;;
6667;SDS011;3370;47.712;9.082;2022-08-21T01:43:47;13.60;;;7.50;;
6667;SDS011;3370;47.712;9.082;2022-08-21T01:46:13;11.27;;;8.43;;
6667;SDS011;3370;47.712;9.082;2022-08-21T01:48:40;11.97;;;8.23;;
6667;SDS011;3370;47.712;9.082;2022-08-21T01:51:07;13.67;;;9.30;;
6667;SDS011;3370;47.712;9.082;2022-08-21T01:53:34;8.97;;;8.07;;
6667;SDS011;3370;47.712;9.082;2022-08-21T01:56:03;7.53;;;6.90;;
6667;SDS011;3370;47.712;9.082;2022-08-21T01:58:32;10.80;;;7.80;;
6667;SDS011;3370;47.712;9.082;2022-08-21T02:00:59;10.73;;;8.03;;
6667;SDS011;3370;47.712;9.082;2022-08-21T02:03:27;8.73;;;8.03;;
6667;SDS011;3370;47.712;9.082;2022-08-21T02:05:54;8.80;;;7.60;;
6667;SDS011;3370;47.712;9.082;2022-08-21T02:08:20;7.80;;;7.10;;
6667;SDS011;3370;47.712;9.082;2022-08-21T02:10:48;8.60;;;7.27;;
6667;SDS011;3370;47.712;9.082;2022-08-21T02:13:16;12.00;;;7.37;;
6667;SDS011;3370;47.712;9.082;2022-08-21T02:15:42;10.57;;;8.23;;
6667;SDS011;3370;47.712;9.082;2022-08-21T02:18:08;7.10;;;6.50;;
6667;SDS011;3370;47.712;9.082;2022-08-21T02:20:46;10.30;;;8.13;;
6667;SDS011;3370;47.712;9.082;2022-08-21T02:23:13;7.40;;;6.80;;
6667;SDS011;3370;47.712;9.082;2022-08-21T02:25:40;9.40;;;6.93;;
6667;SDS011;3370;47.712;9.082;2022-08-21T02:28:08;7.87;;;7.00;;
6667;SDS011;3370;47.712;9.082;2022-08-21T02:30:43;6.33;;;5.83;;
6667;SDS011;3370;47.712;9.082;2022-08-21T02:33:12;7.20;;;6.50;;
6667;SDS011;3370;47.712;9.082;2022-08-21T02:35:40;11.00;;;6.90;;
6667;SDS011;3370;47.712;9.082;2022-08-21T02:38:09;8.23;;;7.43;;
6667;SDS011;3370;47.712;9.082;2022-08-21T02:40:40;10.60;;;8.20;;
6667;SDS011;3370;47.712;9.082;2022-08-21T02:43:09;10.50;;;8.97;;
6667;SDS011;3370;47.712;9.082;2022-08-21T02:45:36;8.30;;;7.60;;
6667;SDS011;3370;47.712;9.082;2022-08-21T02:48:04;12.13;;;8.60;;
6667;SDS011;3370;47.712;9.082;2022-08-21T02:50:35;10.17;;;8.20;;
6667;SDS011;3370;47.712;9.082;2022-08-21T02:53:05;10.17;;;9.17;;
6667;SDS011;3370;47.712;9.082;2022-08-21T02:55:33;10.10;;;8.70;;
6667;SDS011;3370;47.712;9.082;2022-08-21T02:58:01;9.20;;;8.40;;
6667;SDS011;3370;47.712;9.082;2022-08-21T03:00:30;8.77;;;7.97;;
6667;SDS011;3370;47.712;9.082;2022-08-21T03:02:59;8.83;;;8.10;;
6667;SDS011;3370;47.712;9.082;2022-08-21T03:05:26;9.60;;;8.70;;
6667;SDS011;3370;47.712;9.082;2022-08-21T03:07:55;8.70;;;7.90;;
6667;SDS011;3370;47.712;9.082;2022-08-21T03:10:23;9.20;;;7.73;;
6667;SDS011;3370;47.712;9.082;2022-08-21T03:12:50;11.23;;;9.10;;
6667;SDS011;3370;47.712;9.082;2022-08-21T03:15:17;8.60;;;7.80;;
6667;SDS011;3370;47.712;9.082;2022-08-21T03:17:45;9.73;;;8.83;;
6667;SDS011;3370;47.712;9.082;2022-08-21T03:20:14;9.40;;;8.60;;
6667;SDS011;3370;47.712;9.082;2022-08-21T03:22:44;9.67;;;8.67;;
6667;SDS011;3370;47.712;9.082;2022-08-21T03:25:11;9.80;;;8.90;;
6667;SDS011;3370;47.712;9.082;2022-08-21T03:27:37;9.53;;;8.40;;
6667;SDS011;3370;47.712;9.082;2022-08-21T03:30:04;9.50;;;8.60;;
6667;SDS011;3370;47.712;9.082;2022-08-21T03:32:32;9.77;;;8.87;;
6667;SDS011;3370;47.712;9.082;2022-08-21T03:34:59;8.93;;;8.13;;
6667;SDS011;3370;47.712;9.082;2022-08-21T03:37:25;11.00;;;8.80;;
6667;SDS011;3370;47.712;9.082;2022-08-21T03:39:52;11.37;;;8.20;;
6667;SDS011;3370;47.712;9.082;2022-08-21T03:42:18;10.37;;;9.47;;
6667;SDS011;3370;47.712;9.082;2022-08-21T03:44:44;10.40;;;9.50;;
6667;SDS011;3370;47.712;9.082;2022-08-21T03:47:10;10.93;;;9.80;;
6667;SDS011;3370;47.712;9.082;2022-08-21T03:49:36;9.77;;;8.80;;
6667;SDS011;3370;47.712;9.082;2022-08-21T03:52:02;10.87;;;9.77;;
6667;SDS011;3370;47.712;9.082;2022-08-21T03:54:29;20.40;;;11.20;;
6667;SDS011;3370;47.712;9.082;2022-08-21T03:56:55;9.20;;;8.30;;
6667;SDS011;3370;47.712;9.082;2022-08-21T03:59:21;13.20;;;9.47;;
6667;SDS011;3370;47.712;9.082;2022-08-21T04:01:54;11.37;;;10.27;;
6667;SDS011;3370;47.712;9.082;2022-08-21T04:04:24;13.33;;;11.93;;
6667;SDS011;3370;47.712;9.082;2022-08-21T04:06:52;10.77;;;9.77;;
6667;SDS011;3370;47.712;9.082;2022-08-21T04:09:19;10.20;;;9.20;;
6667;SDS011;3370;47.712;9.082;2022-08-21T04:11:45;11.23;;;10.13;;
6667;SDS011;3370;47.712;9.082;2022-08-21T04:14:12;12.37;;;11.07;;
6667;SDS011;3370;47.712;9.082;2022-08-21T04:16:39;14.73;;;11.90;;
6667;SDS011;3370;47.712;9.082;2022-08-21T04:19:06;13.10;;;11.17;;
6667;SDS011;3370;47.712;9.082;2022-08-21T04:21:32;16.83;;;10.67;;
6667;SDS011;3370;47.712;9.082;2022-08-21T04:24:00;10.17;;;8.43;;
6667;SDS011;3370;47.712;9.082;2022-08-21T04:26:27;9.40;;;8.37;;
6667;SDS011;3370;47.712;9.082;2022-08-21T04:28:54;10.70;;;9.60;;
6667;SDS011;3370;47.712;9.082;2022-08-21T04:31:22;12.80;;;11.10;;
6667;SDS011;3370;47.712;9.082;2022-08-21T04:33:49;10.70;;;9.60;;
6667;SDS011;3370;47.712;9.082;2022-08-21T04:36:16;11.33;;;10.23;;
6667;SDS011;3370;47.712;9.082;2022-08-21T04:38:42;12.43;;;8.87;;
6667;SDS011;3370;47.712;9.082;2022-08-21T04:41:08;9.00;;;8.10;;
6667;SDS011;3370;47.712;9.082;2022-08-21T04:43:34;7.53;;;6.73;;
6667;SDS011;3370;47.712;9.082;2022-08-21T04:46:03;6.80;;;6.20;;
6667;SDS011;3370;47.712;9.082;2022-08-21T04:48:29;8.23;;;7.43;;
6667;SDS011;3370;47.712;9.082;2022-08-21T04:51:14;9.57;;;7.80;;
6667;SDS011;3370;47.712;9.082;2022-08-21T04:53:47;10.70;;;8.90;;
6667;SDS011;3370;47.712;9.082;2022-08-21T04:56:36;10.33;;;9.23;;
6667;SDS011;3370;47.712;9.082;2022-08-21T04:59:11;9.27;;;8.37;;
6667;SDS011;3370;47.712;9.082;2022-08-21T05:01:43;9.07;;;8.17;;
6667;SDS011;3370;47.712;9.082;2022-08-21T05:04:10;11.00;;;9.90;;
6667;SDS011;3370;47.712;9.082;2022-08-21T05:06:40;11.50;;;8.93;;
6667;SDS011;3370;47.712;9.082;2022-08-21T05:09:10;10.40;;;9.30;;
6667;SDS011;3370;47.712;9.082;2022-08-21T05:11:40;11.33;;;9.83;;
6667;SDS011;3370;47.712;9.082;2022-08-21T05:14:07;10.70;;;9.57;;
6667;SDS011;3370;47.712;9.082;2022-08-21T05:16:36;8.70;;;7.80;;
6667;SDS011;3370;47.712;9.082;2022-08-21T05:19:02;9.53;;;8.53;;
6667;SDS011;3370;47.712;9.082;2022-08-21T05:21:28;10.13;;;8.83;;
6667;SDS011;3370;47.712;9.082;2022-08-21T05:23:54;10.53;;;9.53;;
6667;SDS011;3370;47.712;9.082;2022-08-21T05:26:20;16.40;;;10.53;;
6667;SDS011;3370;47.712;9.082;2022-08-21T05:28:45;10.73;;;8.97;;
6667;SDS011;3370;47.712;9.082;2022-08-21T05:31:11;11.40;;;9.50;;
6667;SDS011;3370;47.712;9.082;2022-08-21T05:33:37;12.00;;;9.90;;
6667;SDS011;3370;47.712;9.082;2022-08-21T05:36:03;9.87;;;8.87;;
6667;SDS011;3370;47.712;9.082;2022-08-21T05:38:29;12.47;;;9.20;;
6667;SDS011;3370;47.712;9.082;2022-08-21T05:40:55;10.73;;;8.90;;
6667;SDS011;3370;47.712;9.082;2022-08-21T05:43:21;13.03;;;8.00;;
6667;SDS011;3370;47.712;9.082;2022-08-21T05:45:47;7.97;;;7.17;;
6667;SDS011;3370;47.712;9.082;2022-08-21T05:48:15;9.40;;;8.07;;
6667;SDS011;3370;47.712;9.082;2022-08-21T05:50:44;8.83;;;7.97;;
6667;SDS011;3370;47.712;9.082;2022-08-21T05:53:13;8.83;;;7.93;;
6667;SDS011;3370;47.712;9.082;2022-08-21T05:55:40;8.50;;;7.60;;
6667;SDS011;3370;47.712;9.082;2022-08-21T05:58:09;9.93;;;8.37;;
6667;SDS011;3370;47.712;9.082;2022-08-21T06:00:35;8.93;;;8.03;;
6667;SDS011;3370;47.712;9.082;2022-08-21T06:03:02;8.40;;;7.60;;
6667;SDS011;3370;47.712;9.082;2022-08-21T06:05:29;11.03;;;9.03;;
6667;SDS011;3370;47.712;9.082;2022-08-21T06:07:55;9.47;;;8.40;;
6667;SDS011;3370;47.712;9.082;2022-08-21T06:10:21;9.83;;;8.83;;
6667;SDS011;3370;47.712;9.082;2022-08-21T06:12:52;8.97;;;8.17;;
6667;SDS011;3370;47.712;9.082;2022-08-21T06:15:20;14.23;;;7.80;;
6667;SDS011;3370;47.712;9.082;2022-08-21T06:17:46;8.93;;;8.03;;
6667;SDS011;3370;47.712;9.082;2022-08-21T06:20:11;7.70;;;6.90;;
6667;SDS011;3370;47.712;9.082;2022-08-21T06:22:37;7.60;;;6.90;;
6667;SDS011;3370;47.712;9.082;2022-08-21T06:25:03;7.70;;;7.03;;
6667;SDS011;3370;47.712;9.082;2022-08-21T06:27:30;11.50;;;8.30;;
6667;SDS011;3370;47.712;9.082;2022-08-21T06:29:55;7.67;;;6.97;;
6667;SDS011;3370;47.712;9.082;2022-08-21T06:32:22;7.10;;;6.40;;
6667;SDS011;3370;47.712;9.082;2022-08-21T06:34:48;7.00;;;6.40;;
6667;SDS011;3370;47.712;9.082;2022-08-21T06:37:14;6.90;;;6.20;;
6667;SDS011;3370;47.712;9.082;2022-08-21T06:39:40;7.07;;;6.30;;
6667;SDS011;3370;47.712;9.082;2022-08-21T06:42:06;8.70;;;7.90;;
6667;SDS011;3370;47.712;9.082;2022-08-21T06:44:42;8.90;;;6.30;;
6667;SDS011;3370;47.712;9.082;2022-08-21T06:47:09;6.47;;;5.77;;
6667;SDS011;3370;47.712;9.082;2022-08-21T06:49:35;7.20;;;5.73;;
6667;SDS011;3370;47.712;9.082;2022-08-21T06:52:02;5.50;;;5.00;;
6667;SDS011;3370;47.712;9.082;2022-08-21T06:54:28;6.37;;;5.00;;
6667;SDS011;3370;47.712;9.082;2022-08-21T06:56:55;5.73;;;5.10;;
6667;SDS011;3370;47.712;9.082;2022-08-21T06:59:21;7.77;;;6.30;;
6667;SDS011;3370;47.712;9.082;2022-08-21T07:01:47;8.80;;;4.73;;
6667;SDS011;3370;47.712;9.082;2022-08-21T07:04:13;5.67;;;5.13;;
6667;SDS011;3370;47.712;9.082;2022-08-21T07:06:38;4.60;;;4.23;;
6667;SDS011;3370;47.712;9.082;2022-08-21T07:09:04;6.17;;;4.00;;
6667;SDS011;3370;47.712;9.082;2022-08-21T07:11:30;5.90;;;4.63;;
6667;SDS011;3370;47.712;9.082;2022-08-21T07:13:56;6.97;;;5.53;;
6667;SDS011;3370;47.712;9.082;2022-08-21T07:16:23;6.00;;;5.03;;
6667;SDS011;3370;47.712;9.082;2022-08-21T07:18:49;5.50;;;4.80;;
6667;SDS011;3370;47.712;9.082;2022-08-21T07:21:15;7.00;;;4.23;;
6667;SDS011;3370;47.712;9.082;2022-08-21T07:23:43;9.37;;;4.50;;
6667;SDS011;3370;47.712;9.082;2022-08-21T07:26:14;5.27;;;4.73;;
6667;SDS011;3370;47.712;9.082;2022-08-21T07:28:43;7.57;;;4.73;;
6667;SDS011;3370;47.712;9.082;2022-08-21T07:31:10;6.17;;;4.27;;
6667;SDS011;3370;47.712;9.082;2022-08-21T07:33:39;5.90;;;4.93;;
6667;SDS011;3370;47.712;9.082;2022-08-21T07:36:06;7.83;;;4.97;;
6667;SDS011;3370;47.712;9.082;2022-08-21T07:38:32;5.83;;;5.20;;
6667;SDS011;3370;47.712;9.082;2022-08-21T07:40:59;5.93;;;5.00;;
6667;SDS011;3370;47.712;9.082;2022-08-21T07:43:27;5.93;;;4.10;;
6667;SDS011;3370;47.712;9.082;2022-08-21T07:45:54;5.17;;;4.50;;
6667;SDS011;3370;47.712;9.082;2022-08-21T07:48:20;4.87;;;4.30;;
6667;SDS011;3370;47.712;9.082;2022-08-21T07:50:47;11.03;;;4.23;;
6667;SDS011;3370;47.712;9.082;2022-08-21T07:53:14;6.90;;;4.20;;
6667;SDS011;3370;47.712;9.082;2022-08-21T07:55:40;7.75;;;4.90;;
6667;SDS011;3370;47.712;9.082;2022-08-21T07:58:06;5.13;;;4.23;;
6667;SDS011;3370;47.712;9.082;2022-08-21T08:00:32;8.23;;;5.07;;
6667;SDS011;3370;47.712;9.082;2022-08-21T08:02:58;9.63;;;5.20;;
6667;SDS011;3370;47.712;9.082;2022-08-21T08:05:26;5.17;;;4.67;;
6667;SDS011;3370;47.712;9.082;2022-08-21T08:07:55;7.30;;;4.40;;
6667;SDS011;3370;47.712;9.082;2022-08-21T08:10:21;5.50;;;4.87;;
6667;SDS011;3370;47.712;9.082;2022-08-21T08:12:48;6.47;;;5.20;;
6667;SDS011;3370;47.712;9.082;2022-08-21T08:15:17;7.00;;;4.80;;
6667;SDS011;3370;47.712;9.082;2022-08-21T08:17:46;5.43;;;4.93;;
6667;SDS011;3370;47.712;9.082;2022-08-21T08:20:13;8.27;;;5.80;;
6667;SDS011;3370;47.712;9.082;2022-08-21T08:22:41;7.13;;;5.60;;
6667;SDS011;3370;47.712;9.082;2022-08-21T08:25:08;8.90;;;5.00;;
6667;SDS011;3370;47.712;9.082;2022-08-21T08:27:37;7.33;;;5.10;;
6667;SDS011;3370;47.712;9.082;2022-08-21T08:30:04;7.13;;;5.33;;
6667;SDS011;3370;47.712;9.082;2022-08-21T08:32:33;6.23;;;4.93;;
6667;SDS011;3370;47.712;9.082;2022-08-21T08:35:00;6.17;;;5.37;;
6667;SDS011;3370;47.712;9.082;2022-08-21T08:37:26;5.93;;;5.33;;
6667;SDS011;3370;47.712;9.082;2022-08-21T08:39:51;6.37;;;4.60;;
6667;SDS011;3370;47.712;9.082;2022-08-21T08:42:28;11.43;;;4.77;;
6667;SDS011;3370;47.712;9.082;2022-08-21T08:47:40;5.73;;;5.07;;
6667;SDS011;3370;47.712;9.082;2022-08-21T08:50:28;5.07;;;4.60;;
6667;SDS011;3370;47.712;9.082;2022-08-21T08:53:06;5.63;;;5.13;;
6667;SDS011;3370;47.712;9.082;2022-08-21T08:55:55;7.20;;;5.33;;
6667;SDS011;3370;47.712;9.082;2022-08-21T08:58:23;5.30;;;4.83;;
6667;SDS011;3370;47.712;9.082;2022-08-21T09:01:02;5.67;;;4.97;;
6667;SDS011;3370;47.712;9.082;2022-08-21T09:03:38;5.57;;;5.00;;
6667;SDS011;3370;47.712;9.082;2022-08-21T09:06:16;6.37;;;4.73;;
6667;SDS011;3370;47.712;9.082;2022-08-21T09:08:55;5.37;;;4.90;;
6667;SDS011;3370;47.712;9.082;2022-08-21T09:11:42;6.50;;;4.57;;
6667;SDS011;3370;47.712;9.082;2022-08-21T09:14:30;6.20;;;4.60;;
6667;SDS011;3370;47.712;9.082;2022-08-21T09:20:22;5.07;;;4.33;;
6667;SDS011;3370;47.712;9.082;2022-08-21T09:25:58;8.03;;;5.00;;
6667;SDS011;3370;47.712;9.082;2022-08-21T09:28:42;4.87;;;4.33;;
6667;SDS011;3370;47.712;9.082;2022-08-21T09:31:19;8.53;;;4.80;;
6667;SDS011;3370;47.712;9.082;2022-08-21T09:34:00;6.43;;;4.87;;
6667;SDS011;3370;47.712;9.082;2022-08-21T09:36:38;5.07;;;4.67;;
6667;SDS011;3370;47.712;9.082;2022-08-21T09:39:12;9.03;;;4.20;;
6667;SDS011;3370;47.712;9.082;2022-08-21T09:41:49;7.60;;;4.67;;
6667;SDS011;3370;47.712;9.082;2022-08-21T09:44:27;6.53;;;5.10;;
6667;SDS011;3370;47.712;9.082;2022-08-21T09:46:58;6.70;;;4.67;;
6667;SDS011;3370;47.712;9.082;2022-08-21T09:49:32;7.53;;;5.43;;
6667;SDS011;3370;47.712;9.082;2022-08-21T09:52:02;5.10;;;4.53;;
6667;SDS011;3370;47.712;9.082;2022-08-21T09:54:48;6.90;;;5.40;;
6667;SDS011;3370;47.712;9.082;2022-08-21T09:57:20;7.33;;;5.17;;
6667;SDS011;3370;47.712;9.082;2022-08-21T10:00:08;5.70;;;4.90;;
6667;SDS011;3370;47.712;9.082;2022-08-21T10:02:54;11.43;;;4.60;;
6667;SDS011;3370;47.712;9.082;2022-08-21T10:05:35;5.40;;;4.50;;
6667;SDS011;3370;47.712;9.082;2022-08-21T10:08:03;5.80;;;4.60;;
6667;SDS011;3370;47.712;9.082;2022-08-21T10:10:31;6.60;;;4.63;;
6667;SDS011;3370;47.712;9.082;2022-08-21T10:13:05;5.07;;;4.67;;
6667;SDS011;3370;47.712;9.082;2022-08-21T10:25:08;4.80;;;4.13;;
6667;SDS011;3370;47.712;9.082;2022-08-21T10:27:54;4.40;;;4.00;;
6667;SDS011;3370;47.712;9.082;2022-08-21T10:36:19;5.37;;;3.90;;
6667;SDS011;3370;47.712;9.082;2022-08-21T10:45:02;5.30;;;3.97;;
6667;SDS011;3370;47.712;9.082;2022-08-21T10:47:44;3.93;;;3.63;;
6667;SDS011;3370;47.712;9.082;2022-08-21T10:55:55;3.97;;;3.50;;
6667;SDS011;3370;47.712;9.082;2022-08-21T11:01:11;3.50;;;3.20;;
6667;SDS011;3370;47.712;9.082;2022-08-21T11:03:59;11.73;;;3.80;;
6667;SDS011;3370;47.712;9.082;2022-08-21T11:06:46;5.00;;;3.33;;
6667;SDS011;3370;47.712;9.082;2022-08-21T11:09:19;5.23;;;3.23;;
6667;SDS011;3370;47.712;9.082;2022-08-21T11:12:12;5.47;;;3.00;;
6667;SDS011;3370;47.712;9.082;2022-08-21T11:15:00;4.03;;;2.80;;
6667;SDS011;3370;47.712;9.082;2022-08-21T11:17:32;7.33;;;3.20;;
6667;SDS011;3370;47.712;9.082;2022-08-21T11:20:09;4.50;;;3.20;;
6667;SDS011;3370;47.712;9.082;2022-08-21T11:39:30;4.20;;;2.60;;
6667;SDS011;3370;47.712;9.082;2022-08-21T11:42:55;4.87;;;2.50;;
6667;SDS011;3370;47.712;9.082;2022-08-21T11:45:28;5.00;;;2.50;;
6667;SDS011;3370;47.712;9.082;2022-08-21T11:51:26;4.60;;;2.63;;
6667;SDS011;3370;47.712;9.082;2022-08-21T12:00:05;3.10;;;2.20;;
6667;SDS011;3370;47.712;9.082;2022-08-21T12:03:16;3.13;;;2.27;;
6667;SDS011;3370;47.712;9.082;2022-08-21T12:07:08;3.17;;;2.13;;
6667;SDS011;3370;47.712;9.082;2022-08-21T12:09:07;2.50;;;2.30;;
6667;SDS011;3370;47.712;9.082;2022-08-21T12:12:02;3.43;;;2.23;;
6667;SDS011;3370;47.712;9.082;2022-08-21T12:14:49;6.90;;;2.30;;
6667;SDS011;3370;47.712;9.082;2022-08-21T12:17:34;2.83;;;1.67;;
6667;SDS011;3370;47.712;9.082;2022-08-21T12:20:17;2.70;;;1.80;;
6667;SDS011;3370;47.712;9.082;2022-08-21T12:22:54;6.70;;;1.77;;
6667;SDS011;3370;47.712;9.082;2022-08-21T12:29:25;3.73;;;1.73;;
6667;SDS011;3370;47.712;9.082;2022-08-21T12:34:50;2.03;;;1.47;;
6667;SDS011;3370;47.712;9.082;2022-08-21T12:39:51;8.23;;;1.77;;
6667;SDS011;3370;47.712;9.082;2022-08-21T12:45:00;5.20;;;2.40;;
6667;SDS011;3370;47.712;9.082;2022-08-21T12:47:36;4.77;;;2.20;;
6667;SDS011;3370;47.712;9.082;2022-08-21T12:50:43;2.97;;;2.43;;
6667;SDS011;3370;47.712;9.082;2022-08-21T12:55:54;2.07;;;1.87;;
6667;SDS011;3370;47.712;9.082;2022-08-21T12:58:25;5.27;;;2.33;;
6667;SDS011;3370;47.712;9.082;2022-08-21T13:00:56;3.10;;;1.80;;
6667;SDS011;3370;47.712;9.082;2022-08-21T13:03:34;4.20;;;2.00;;
6667;SDS011;3370;47.712;9.082;2022-08-21T13:06:05;4.43;;;2.20;;
6667;SDS011;3370;47.712;9.082;2022-08-21T13:08:34;3.40;;;2.00;;
6667;SDS011;3370;47.712;9.082;2022-08-21T13:11:05;2.53;;;1.60;;
6667;SDS011;3370;47.712;9.082;2022-08-21T13:13:31;3.90;;;1.63;;
6667;SDS011;3370;47.712;9.082;2022-08-21T13:16:03;8.53;;;2.70;;
6667;SDS011;3370;47.712;9.082;2022-08-21T13:18:33;2.83;;;1.57;;
6667;SDS011;3370;47.712;9.082;2022-08-21T13:21:10;2.77;;;1.40;;
6667;SDS011;3370;47.712;9.082;2022-08-21T13:23:40;3.40;;;1.33;;
6667;SDS011;3370;47.712;9.082;2022-08-21T13:26:20;1.20;;;1.10;;
6667;SDS011;3370;47.712;9.082;2022-08-21T13:28:47;1.50;;;1.40;;
6667;SDS011;3370;47.712;9.082;2022-08-21T13:31:16;3.40;;;1.40;;
6667;SDS011;3370;47.712;9.082;2022-08-21T13:33:51;1.40;;;1.17;;
6667;SDS011;3370;47.712;9.082;2022-08-21T13:36:32;1.43;;;1.27;;
6667;SDS011;3370;47.712;9.082;2022-08-21T13:39:09;4.83;;;1.13;;
6667;SDS011;3370;47.712;9.082;2022-08-21T13:41:40;2.30;;;1.10;;
6667;SDS011;3370;47.712;9.082;2022-08-21T13:44:14;2.93;;;1.77;;
6667;SDS011;3370;47.712;9.082;2022-08-21T13:46:51;6.13;;;1.37;;
6667;SDS011;3370;47.712;9.082;2022-08-21T13:49:20;5.37;;;1.67;;
6667;SDS011;3370;47.712;9.082;2022-08-21T13:51:57;4.00;;;1.20;;
6667;SDS011;3370;47.712;9.082;2022-08-21T13:54:33;2.53;;;1.57;;
6667;SDS011;3370;47.712;9.082;2022-08-21T13:57:16;1.73;;;1.30;;
6667;SDS011;3370;47.712;9.082;2022-08-21T13:59:45;1.63;;;1.40;;
6667;SDS011;3370;47.712;9.082;2022-08-21T14:02:18;2.43;;;1.47;;
6667;SDS011;3370;47.712;9.082;2022-08-21T14:04:52;3.23;;;1.47;;
6667;SDS011;3370;47.712;9.082;2022-08-21T14:10:06;1.40;;;1.23;;
6667;SDS011;3370;47.712;9.082;2022-08-21T14:12:42;1.30;;;1.30;;
6667;SDS011;3370;47.712;9.082;2022-08-21T14:15:25;2.30;;;1.40;;
6667;SDS011;3370;47.712;9.082;2022-08-21T14:18:14;1.53;;;1.23;;
6667;SDS011;3370;47.712;9.082;2022-08-21T14:20:43;3.23;;;1.40;;
6667;SDS011;3370;47.712;9.082;2022-08-21T14:23:10;2.97;;;1.60;;
6667;SDS011;3370;47.712;9.082;2022-08-21T14:25:40;3.00;;;1.47;;
6667;SDS011;3370;47.712;9.082;2022-08-21T14:31:10;1.70;;;1.60;;
6667;SDS011;3370;47.712;9.082;2022-08-21T14:33:46;2.43;;;1.80;;
6667;SDS011;3370;47.712;9.082;2022-08-21T14:36:12;2.13;;;1.40;;
6667;SDS011;3370;47.712;9.082;2022-08-21T14:38:40;2.30;;;1.37;;
6667;SDS011;3370;47.712;9.082;2022-08-21T14:41:17;1.90;;;1.80;;
6667;SDS011;3370;47.712;9.082;2022-08-21T14:43:47;1.80;;;1.70;;
6667;SDS011;3370;47.712;9.082;2022-08-21T14:46:25;1.83;;;1.73;;
6667;SDS011;3370;47.712;9.082;2022-08-21T14:48:54;3.93;;;1.40;;
6667;SDS011;3370;47.712;9.082;2022-08-21T14:51:21;2.43;;;1.50;;
6667;SDS011;3370;47.712;9.082;2022-08-21T14:53:47;3.47;;;1.70;;
6667;SDS011;3370;47.712;9.082;2022-08-21T14:56:13;2.87;;;1.60;;
6667;SDS011;3370;47.712;9.082;2022-08-21T14:58:41;1.33;;;1.23;;
6667;SDS011;3370;47.712;9.082;2022-08-21T15:01:21;1.53;;;1.20;;
6667;SDS011;3370;47.712;9.082;2022-08-21T15:03:48;1.40;;;1.30;;
6667;SDS011;3370;47.712;9.082;2022-08-21T15:06:15;2.83;;;1.40;;
6667;SDS011;3370;47.712;9.082;2022-08-21T15:08:42;5.73;;;1.50;;
6667;SDS011;3370;47.712;9.082;2022-08-21T15:11:09;1.30;;;1.20;;
6667;SDS011;3370;47.712;9.082;2022-08-21T15:13:40;2.80;;;1.60;;
6667;SDS011;3370;47.712;9.082;2022-08-21T15:16:07;1.30;;;1.20;;
6667;SDS011;3370;47.712;9.082;2022-08-21T15:18:35;1.60;;;1.50;;
6667;SDS011;3370;47.712;9.082;2022-08-21T15:21:01;2.80;;;1.53;;
6667;SDS011;3370;47.712;9.082;2022-08-21T15:23:27;1.80;;;1.30;;
6667;SDS011;3370;47.712;9.082;2022-08-21T15:25:53;2.00;;;1.13;;
6667;SDS011;3370;47.712;9.082;2022-08-21T15:28:22;1.20;;;1.10;;
6667;SDS011;3370;47.712;9.082;2022-08-21T15:30:50;1.50;;;1.40;;
6667;SDS011;3370;47.712;9.082;2022-08-21T15:33:17;3.60;;;1.30;;
6667;SDS011;3370;47.712;9.082;2022-08-21T15:35:43;2.93;;;1.30;;
6667;SDS011;3370;47.712;9.082;2022-08-21T15:38:11;1.60;;;1.30;;
6667;SDS011;3370;47.712;9.082;2022-08-21T15:40:38;1.70;;;1.17;;
6667;SDS011;3370;47.712;9.082;2022-08-21T15:43:05;2.93;;;1.10;;
6667;SDS011;3370;47.712;9.082;2022-08-21T15:45:35;1.20;;;1.10;;
6667;SDS011;3370;47.712;9.082;2022-08-21T15:48:00;1.53;;;1.23;;
6667;SDS011;3370;47.712;9.082;2022-08-21T15:50:28;2.70;;;1.50;;
6667;SDS011;3370;47.712;9.082;2022-08-21T15:52:55;1.30;;;1.17;;
6667;SDS011;3370;47.712;9.082;2022-08-21T15:55:21;2.00;;;1.53;;
6667;SDS011;3370;47.712;9.082;2022-08-21T15:57:47;1.93;;;1.13;;
6667;SDS011;3370;47.712;9.082;2022-08-21T16:00:20;1.13;;;1.13;;
6667;SDS011;3370;47.712;9.082;2022-08-21T16:02:49;1.80;;;1.00;;
6667;SDS011;3370;47.712;9.082;2022-08-21T16:05:19;2.77;;;1.37;;
6667;SDS011;3370;47.712;9.082;2022-08-21T16:07:46;1.20;;;1.10;;
6667;SDS011;3370;47.712;9.082;2022-08-21T16:10:17;1.40;;;1.30;;
6667;SDS011;3370;47.712;9.082;2022-08-21T16:12:53;1.13;;;1.03;;
6667;SDS011;3370;47.712;9.082;2022-08-21T16:15:27;1.43;;;1.13;;
6667;SDS011;3370;47.712;9.082;2022-08-21T16:17:53;1.70;;;1.40;;
6667;SDS011;3370;47.712;9.082;2022-08-21T16:20:24;2.30;;;1.20;;
6667;SDS011;3370;47.712;9.082;2022-08-21T16:22:53;2.30;;;1.30;;
6667;SDS011;3370;47.712;9.082;2022-08-21T16:25:21;1.80;;;1.70;;
6667;SDS011;3370;47.712;9.082;2022-08-21T16:27:49;1.30;;;1.20;;
6667;SDS011;3370;47.712;9.082;2022-08-21T16:30:25;3.93;;;1.20;;
6667;SDS011;3370;47.712;9.082;2022-08-21T16:32:52;2.87;;;1.53;;
6667;SDS011;3370;47.712;9.082;2022-08-21T16:35:19;1.90;;;1.40;;
6667;SDS011;3370;47.712;9.082;2022-08-21T16:37:47;4.00;;;1.10;;
6667;SDS011;3370;47.712;9.082;2022-08-21T16:40:13;1.90;;;1.10;;
6667;SDS011;3370;47.712;9.082;2022-08-21T16:42:40;1.80;;;1.10;;
6667;SDS011;3370;47.712;9.082;2022-08-21T16:45:10;2.10;;;1.23;;
6667;SDS011;3370;47.712;9.082;2022-08-21T16:47:39;1.50;;;1.40;;
6667;SDS011;3370;47.712;9.082;2022-08-21T16:50:05;1.87;;;1.40;;
6667;SDS011;3370;47.712;9.082;2022-08-21T16:52:33;2.20;;;1.30;;
6667;SDS011;3370;47.712;9.082;2022-08-21T16:55:00;1.20;;;1.10;;
6667;SDS011;3370;47.712;9.082;2022-08-21T16:57:26;2.00;;;1.10;;
6667;SDS011;3370;47.712;9.082;2022-08-21T16:59:52;1.43;;;1.23;;